This is the latest recevied weather packets stored in our database for station/object WC4PEM-1. If no packets are shown the sender has not sent any weather packets the latest 1 day(s).
| Time | Temp. | Humidity | Pressure | Rain* | Wind** | Luminosity | Snow |
|---|---|---|---|---|---|---|---|
| 1778071452 | 23.33° C | 83% | 1015.8 hPa | 0 mm | - | 179 W/m² | - |
| 1778070843 | 22.78° C | 84% | 1015.8 hPa | 0 mm | - | 134 W/m² | - |
| 1778067848 | 19.44° C | 91% | 1015.6 hPa | 0 mm | - | 49 W/m² | - |
| 1778067421 | 18.89° C | 91% | 1015.5 hPa | 0 mm | - | 56 W/m² | - |
| 1778064502 | 17.22° C | 89% | 1015 hPa | 0 mm | - | 0 W/m² | - |
| 1778062702 | 17.22° C | 88% | 1014.8 hPa | 0 mm | - | 0 W/m² | - |
| 1778062402 | 17.22° C | 88% | 1014.8 hPa | 0 mm | - | 0 W/m² | - |
| 1778062102 | 17.22° C | 88% | 1014.8 hPa | 0 mm | - | 0 W/m² | - |
| 1778061802 | 17.22° C | 88% | 1014.8 hPa | 0 mm | - | 0 W/m² | - |
| 1778061502 | 17.22° C | 87% | 1014.8 hPa | 0 mm | - | 0 W/m² | - |
| 1778061202 | 17.22° C | 87% | 1014.9 hPa | 0 mm | - | 0 W/m² | - |
| 1778060902 | 17.22° C | 87% | 1014.8 hPa | 0 mm | - | 0 W/m² | - |
| 1778060602 | 17.22° C | 87% | 1014.7 hPa | 0 mm | - | 0 W/m² | - |
| 1778060302 | 17.78° C | 87% | 1014.7 hPa | 0 mm | - | 0 W/m² | - |
| 1778060002 | 17.78° C | 87% | 1014.7 hPa | 0 mm | - | 0 W/m² | - |
| 1778059702 | 17.78° C | 87% | 1014.7 hPa | 0 mm | - | 0 W/m² | - |
| 1778059402 | 17.22° C | 87% | 1014.7 hPa | 0 mm | - | 0 W/m² | - |
| 1778058802 | 17.22° C | 87% | 1014.5 hPa | 0 mm | - | 0 W/m² | - |
| 1778058502 | 17.22° C | 87% | 1014.5 hPa | 0 mm | - | 0 W/m² | - |
| 1778058202 | 17.22° C | 87% | 1014.5 hPa | 0 mm | - | 0 W/m² | - |
| 1778057902 | 17.22° C | 87% | 1014.5 hPa | 0 mm | - | 0 W/m² | - |
| 1778057602 | 17.22° C | 87% | 1014.5 hPa | 0 mm | - | 0 W/m² | - |
| 1778057302 | 17.22° C | 86% | 1014.5 hPa | 0 mm | - | 0 W/m² | - |
| 1778057002 | 17.22° C | 86% | 1014.6 hPa | 0 mm | - | 0 W/m² | - |
| 1778056702 | 17.22° C | 86% | 1014.6 hPa | 0 mm | - | 0 W/m² | - |
* Rain latest hour (hover to see other rain measurements)
** Current wind speed in m/s (hover to see current wind gust speed)